Manitou Springs, Colorado
Current Conditions -  °F | °C
As of 3:19 AM on Monday 22 Dec 2014 (Local Time) from KCWN Reporting Station
Light Snow Light Snow  
Wind Chill: 17°   Ceiling: 3300
Heat Index: 28°   Visibility: 4mi
Dew Point: 28°   Wind: 14mph
Humidity: 100%   Direction: 350°N
Pressure: 29.69"   Gusts: NA
Location:  38.86°N, 104.92°W
Report Text: KCWN 221019Z AUTO 35012KT 4SM -SN FEW018 BKN033 OVC047 M02/M02 A2969 RMK AO2
Loading
Personal Weather Stations






























Interactive Weather Map New forecast layout! Learn more

10-Day Weather Forecast

Advertisements
Track Severe Weather on mobile